sensor_id;sensor_type;location;lat;lon;timestamp;P1;durP1;ratioP1;P2;durP2;ratioP2
5945;SDS011;2998;48.206;16.394;2023-05-24T00:02:11;14.07;;;12.67;;
5945;SDS011;2998;48.206;16.394;2023-05-24T00:04:41;12.90;;;11.80;;
5945;SDS011;2998;48.206;16.394;2023-05-24T00:07:11;15.30;;;12.20;;
5945;SDS011;2998;48.206;16.394;2023-05-24T00:09:41;11.77;;;10.77;;
5945;SDS011;2998;48.206;16.394;2023-05-24T00:12:10;12.10;;;11.00;;
5945;SDS011;2998;48.206;16.394;2023-05-24T00:14:40;26.80;;;17.60;;
5945;SDS011;2998;48.206;16.394;2023-05-24T00:17:09;35.17;;;21.43;;
5945;SDS011;2998;48.206;16.394;2023-05-24T00:19:38;36.23;;;19.90;;
5945;SDS011;2998;48.206;16.394;2023-05-24T00:22:08;17.80;;;12.67;;
5945;SDS011;2998;48.206;16.394;2023-05-24T00:24:41;12.67;;;11.47;;
5945;SDS011;2998;48.206;16.394;2023-05-24T00:27:11;12.87;;;11.67;;
5945;SDS011;2998;48.206;16.394;2023-05-24T00:29:40;12.97;;;11.60;;
5945;SDS011;2998;48.206;16.394;2023-05-24T00:32:09;13.47;;;11.80;;
5945;SDS011;2998;48.206;16.394;2023-05-24T00:34:39;12.87;;;11.27;;
5945;SDS011;2998;48.206;16.394;2023-05-24T00:37:08;12.20;;;11.00;;
5945;SDS011;2998;48.206;16.394;2023-05-24T00:39:38;12.00;;;10.13;;
5945;SDS011;2998;48.206;16.394;2023-05-24T00:50:51;12.93;;;10.30;;
5945;SDS011;2998;48.206;16.394;2023-05-24T00:53:20;14.20;;;11.40;;
5945;SDS011;2998;48.206;16.394;2023-05-24T01:00:08;9.97;;;9.07;;
5945;SDS011;2998;48.206;16.394;2023-05-24T01:07:01;59.53;;;19.90;;
5945;SDS011;2998;48.206;16.394;2023-05-24T01:09:36;11.00;;;8.40;;
5945;SDS011;2998;48.206;16.394;2023-05-24T01:16:33;7.80;;;7.10;;
5945;SDS011;2998;48.206;16.394;2023-05-24T01:19:10;7.83;;;7.33;;
5945;SDS011;2998;48.206;16.394;2023-05-24T01:26:19;8.37;;;7.50;;
5945;SDS011;2998;48.206;16.394;2023-05-24T01:28:59;9.30;;;8.50;;
5945;SDS011;2998;48.206;16.394;2023-05-24T01:35:43;12.77;;;9.87;;
5945;SDS011;2998;48.206;16.394;2023-05-24T01:38:12;11.13;;;10.03;;
5945;SDS011;2998;48.206;16.394;2023-05-24T01:40:42;10.20;;;9.20;;
5945;SDS011;2998;48.206;16.394;2023-05-24T01:52:07;15.00;;;10.20;;
5945;SDS011;2998;48.206;16.394;2023-05-24T01:54:41;12.80;;;10.37;;
5945;SDS011;2998;48.206;16.394;2023-05-24T02:01:31;13.93;;;11.87;;
5945;SDS011;2998;48.206;16.394;2023-05-24T02:08:15;16.77;;;12.30;;
5945;SDS011;2998;48.206;16.394;2023-05-24T02:10:44;14.50;;;12.03;;
5945;SDS011;2998;48.206;16.394;2023-05-24T02:17:25;11.27;;;10.10;;
5945;SDS011;2998;48.206;16.394;2023-05-24T02:19:55;11.43;;;10.23;;
5945;SDS011;2998;48.206;16.394;2023-05-24T02:22:24;11.53;;;10.33;;
5945;SDS011;2998;48.206;16.394;2023-05-24T02:26:34;19.73;;;15.00;;
5945;SDS011;2998;48.206;16.394;2023-05-24T02:33:21;13.83;;;12.47;;
5945;SDS011;2998;48.206;16.394;2023-05-24T02:35:51;12.67;;;11.57;;
5945;SDS011;2998;48.206;16.394;2023-05-24T02:42:46;15.03;;;12.13;;
5945;SDS011;2998;48.206;16.394;2023-05-24T02:49:46;12.50;;;11.33;;
5945;SDS011;2998;48.206;16.394;2023-05-24T02:52:15;12.77;;;11.57;;
5945;SDS011;2998;48.206;16.394;2023-05-24T02:54:47;16.50;;;11.00;;
5945;SDS011;2998;48.206;16.394;2023-05-24T02:57:17;12.40;;;11.30;;
5945;SDS011;2998;48.206;16.394;2023-05-24T03:03:59;13.33;;;11.90;;
5945;SDS011;2998;48.206;16.394;2023-05-24T03:06:28;13.43;;;12.33;;
5945;SDS011;2998;48.206;16.394;2023-05-24T03:13:16;11.97;;;10.87;;
5945;SDS011;2998;48.206;16.394;2023-05-24T03:15:46;13.17;;;11.87;;
5945;SDS011;2998;48.206;16.394;2023-05-24T03:18:15;11.90;;;10.70;;
5945;SDS011;2998;48.206;16.394;2023-05-24T03:20:46;15.53;;;11.50;;
5945;SDS011;2998;48.206;16.394;2023-05-24T03:23:15;12.73;;;11.60;;
5945;SDS011;2998;48.206;16.394;2023-05-24T03:25:45;24.30;;;19.17;;
5945;SDS011;2998;48.206;16.394;2023-05-24T03:28:14;15.30;;;13.90;;
5945;SDS011;2998;48.206;16.394;2023-05-24T03:30:43;12.30;;;11.20;;
5945;SDS011;2998;48.206;16.394;2023-05-24T03:33:12;15.03;;;10.87;;
5945;SDS011;2998;48.206;16.394;2023-05-24T03:35:41;11.40;;;10.30;;
5945;SDS011;2998;48.206;16.394;2023-05-24T03:38:12;46.47;;;42.20;;
5945;SDS011;2998;48.206;16.394;2023-05-24T03:40:41;11.10;;;10.00;;
5945;SDS011;2998;48.206;16.394;2023-05-24T03:43:11;10.33;;;9.43;;
5945;SDS011;2998;48.206;16.394;2023-05-24T03:45:40;47.63;;;29.93;;
5945;SDS011;2998;48.206;16.394;2023-05-24T03:48:09;14.10;;;12.30;;
5945;SDS011;2998;48.206;16.394;2023-05-24T03:50:39;9.93;;;9.13;;
5945;SDS011;2998;48.206;16.394;2023-05-24T03:53:08;9.13;;;8.37;;
5945;SDS011;2998;48.206;16.394;2023-05-24T03:55:39;85.33;;;43.50;;
5945;SDS011;2998;48.206;16.394;2023-05-24T03:58:08;57.77;;;28.77;;
5945;SDS011;2998;48.206;16.394;2023-05-24T04:04:52;7.47;;;6.77;;
5945;SDS011;2998;48.206;16.394;2023-05-24T04:07:21;7.13;;;6.60;;
5945;SDS011;2998;48.206;16.394;2023-05-24T04:14:10;7.50;;;6.87;;
5945;SDS011;2998;48.206;16.394;2023-05-24T04:16:39;30.67;;;14.70;;
5945;SDS011;2998;48.206;16.394;2023-05-24T04:19:11;15.23;;;8.97;;
5945;SDS011;2998;48.206;16.394;2023-05-24T04:21:40;6.90;;;6.40;;
5945;SDS011;2998;48.206;16.394;2023-05-24T04:24:10;7.20;;;6.60;;
5945;SDS011;2998;48.206;16.394;2023-05-24T04:26:39;5.23;;;5.03;;
5945;SDS011;2998;48.206;16.394;2023-05-24T04:29:10;7.30;;;6.00;;
5945;SDS011;2998;48.206;16.394;2023-05-24T04:31:39;4.03;;;3.83;;
5945;SDS011;2998;48.206;16.394;2023-05-24T04:34:09;4.53;;;4.17;;
5945;SDS011;2998;48.206;16.394;2023-05-24T04:36:40;3.93;;;3.73;;
5945;SDS011;2998;48.206;16.394;2023-05-24T04:39:10;8.67;;;5.23;;
5945;SDS011;2998;48.206;16.394;2023-05-24T04:41:39;4.40;;;4.13;;
5945;SDS011;2998;48.206;16.394;2023-05-24T04:44:10;4.37;;;4.17;;
5945;SDS011;2998;48.206;16.394;2023-05-24T04:46:39;4.47;;;4.27;;
5945;SDS011;2998;48.206;16.394;2023-05-24T04:49:08;6.90;;;6.40;;
5945;SDS011;2998;48.206;16.394;2023-05-24T04:55:45;3.30;;;3.00;;
5945;SDS011;2998;48.206;16.394;2023-05-24T04:58:16;3.43;;;3.23;;
5945;SDS011;2998;48.206;16.394;2023-05-24T05:05:11;2.33;;;2.23;;
5945;SDS011;2998;48.206;16.394;2023-05-24T05:07:40;2.70;;;2.50;;
5945;SDS011;2998;48.206;16.394;2023-05-24T05:14:21;2.30;;;2.17;;
5945;SDS011;2998;48.206;16.394;2023-05-24T05:21:17;3.30;;;3.10;;
5945;SDS011;2998;48.206;16.394;2023-05-24T05:23:47;3.33;;;3.10;;
5945;SDS011;2998;48.206;16.394;2023-05-24T05:30:29;2.87;;;2.67;;
5945;SDS011;2998;48.206;16.394;2023-05-24T05:32:58;3.90;;;3.70;;
5945;SDS011;2998;48.206;16.394;2023-05-24T05:39:48;4.03;;;3.83;;
5945;SDS011;2998;48.206;16.394;2023-05-24T05:46:36;5.03;;;4.57;;
5945;SDS011;2998;48.206;16.394;2023-05-24T05:49:05;4.33;;;4.10;;
5945;SDS011;2998;48.206;16.394;2023-05-24T05:55:50;4.43;;;4.13;;
5945;SDS011;2998;48.206;16.394;2023-05-24T05:58:19;4.03;;;3.83;;
5945;SDS011;2998;48.206;16.394;2023-05-24T06:00:48;4.47;;;4.17;;
5945;SDS011;2998;48.206;16.394;2023-05-24T06:03:17;16.53;;;10.90;;
5945;SDS011;2998;48.206;16.394;2023-05-24T06:05:47;7.93;;;5.90;;
5945;SDS011;2998;48.206;16.394;2023-05-24T06:08:16;3.70;;;3.50;;
5945;SDS011;2998;48.206;16.394;2023-05-24T06:10:45;3.93;;;3.60;;
5945;SDS011;2998;48.206;16.394;2023-05-24T06:13:20;2.90;;;2.80;;
5945;SDS011;2998;48.206;16.394;2023-05-24T06:15:49;2.93;;;2.83;;
5945;SDS011;2998;48.206;16.394;2023-05-24T06:18:18;2.90;;;2.80;;
5945;SDS011;2998;48.206;16.394;2023-05-24T06:20:48;2.30;;;2.20;;
5945;SDS011;2998;48.206;16.394;2023-05-24T06:23:17;2.40;;;2.30;;
5945;SDS011;2998;48.206;16.394;2023-05-24T06:25:47;2.23;;;2.13;;
5945;SDS011;2998;48.206;16.394;2023-05-24T06:28:17;2.80;;;2.60;;
5945;SDS011;2998;48.206;16.394;2023-05-24T06:30:48;3.03;;;2.80;;
5945;SDS011;2998;48.206;16.394;2023-05-24T06:33:18;6.47;;;5.97;;
5945;SDS011;2998;48.206;16.394;2023-05-24T06:35:48;3.20;;;3.00;;
5945;SDS011;2998;48.206;16.394;2023-05-24T06:38:17;3.00;;;2.90;;
5945;SDS011;2998;48.206;16.394;2023-05-24T06:40:47;2.90;;;2.70;;
5945;SDS011;2998;48.206;16.394;2023-05-24T06:47:48;4.83;;;3.10;;
5945;SDS011;2998;48.206;16.394;2023-05-24T06:50:17;3.27;;;2.83;;
5945;SDS011;2998;48.206;16.394;2023-05-24T06:57:00;2.67;;;2.30;;
5945;SDS011;2998;48.206;16.394;2023-05-24T06:59:30;2.27;;;2.07;;
5945;SDS011;2998;48.206;16.394;2023-05-24T07:06:19;2.30;;;2.20;;
5945;SDS011;2998;48.206;16.394;2023-05-24T07:08:48;2.10;;;2.00;;
5945;SDS011;2998;48.206;16.394;2023-05-24T07:11:18;2.50;;;2.40;;
5945;SDS011;2998;48.206;16.394;2023-05-24T07:13:47;2.47;;;2.37;;
5945;SDS011;2998;48.206;16.394;2023-05-24T07:16:17;2.57;;;2.37;;
5945;SDS011;2998;48.206;16.394;2023-05-24T07:23:07;2.30;;;2.10;;
5945;SDS011;2998;48.206;16.394;2023-05-24T07:25:37;2.27;;;2.17;;
5945;SDS011;2998;48.206;16.394;2023-05-24T07:32:24;2.10;;;2.00;;
5945;SDS011;2998;48.206;16.394;2023-05-24T07:34:54;1.80;;;1.70;;
5945;SDS011;2998;48.206;16.394;2023-05-24T07:41:43;2.30;;;2.03;;
5945;SDS011;2998;48.206;16.394;2023-05-24T07:44:12;1.60;;;1.50;;
5945;SDS011;2998;48.206;16.394;2023-05-24T07:46:41;2.47;;;2.27;;
5945;SDS011;2998;48.206;16.394;2023-05-24T07:49:11;2.30;;;2.20;;
5945;SDS011;2998;48.206;16.394;2023-05-24T07:51:40;1.90;;;1.80;;
5945;SDS011;2998;48.206;16.394;2023-05-24T07:54:10;2.40;;;2.20;;
5945;SDS011;2998;48.206;16.394;2023-05-24T07:56:39;2.03;;;1.90;;
5945;SDS011;2998;48.206;16.394;2023-05-24T08:03:29;2.50;;;2.40;;
5945;SDS011;2998;48.206;16.394;2023-05-24T08:05:58;2.47;;;2.37;;
5945;SDS011;2998;48.206;16.394;2023-05-24T08:12:46;2.07;;;1.97;;
5945;SDS011;2998;48.206;16.394;2023-05-24T08:15:17;7.10;;;4.27;;
5945;SDS011;2998;48.206;16.394;2023-05-24T08:22:00;3.43;;;2.43;;
5945;SDS011;2998;48.206;16.394;2023-05-24T08:24:31;2.57;;;2.37;;
5945;SDS011;2998;48.206;16.394;2023-05-24T08:27:01;1.83;;;1.73;;
5945;SDS011;2998;48.206;16.394;2023-05-24T08:33:48;2.70;;;2.60;;
5945;SDS011;2998;48.206;16.394;2023-05-24T08:36:17;2.30;;;2.20;;
5945;SDS011;2998;48.206;16.394;2023-05-24T08:43:00;2.70;;;2.60;;
5945;SDS011;2998;48.206;16.394;2023-05-24T08:45:31;2.00;;;1.90;;
5945;SDS011;2998;48.206;16.394;2023-05-24T08:48:03;2.33;;;2.17;;
5945;SDS011;2998;48.206;16.394;2023-05-24T08:50:33;2.40;;;2.23;;
5945;SDS011;2998;48.206;16.394;2023-05-24T08:53:02;3.60;;;3.13;;
5945;SDS011;2998;48.206;16.394;2023-05-24T08:55:34;2.83;;;2.73;;
5945;SDS011;2998;48.206;16.394;2023-05-24T08:58:05;2.17;;;2.07;;
5945;SDS011;2998;48.206;16.394;2023-05-24T09:00:34;2.20;;;2.10;;
5945;SDS011;2998;48.206;16.394;2023-05-24T09:03:03;3.30;;;2.20;;
5945;SDS011;2998;48.206;16.394;2023-05-24T09:05:33;2.10;;;2.00;;
5945;SDS011;2998;48.206;16.394;2023-05-24T09:08:02;2.20;;;2.00;;
5945;SDS011;2998;48.206;16.394;2023-05-24T09:10:32;2.00;;;1.90;;
5945;SDS011;2998;48.206;16.394;2023-05-24T09:13:19;2.30;;;2.20;;
5945;SDS011;2998;48.206;16.394;2023-05-24T09:15:51;2.33;;;2.23;;
5945;SDS011;2998;48.206;16.394;2023-05-24T09:18:20;2.67;;;2.50;;
5945;SDS011;2998;48.206;16.394;2023-05-24T09:20:50;2.13;;;2.03;;
5945;SDS011;2998;48.206;16.394;2023-05-24T09:23:19;2.23;;;2.13;;
5945;SDS011;2998;48.206;16.394;2023-05-24T09:25:48;2.50;;;2.20;;
5945;SDS011;2998;48.206;16.394;2023-05-24T09:28:17;2.40;;;2.30;;
5945;SDS011;2998;48.206;16.394;2023-05-24T09:30:57;3.20;;;2.80;;
5945;SDS011;2998;48.206;16.394;2023-05-24T09:33:31;2.60;;;2.50;;
5945;SDS011;2998;48.206;16.394;2023-05-24T09:36:02;2.87;;;2.77;;
5945;SDS011;2998;48.206;16.394;2023-05-24T09:38:33;3.93;;;2.70;;
5945;SDS011;2998;48.206;16.394;2023-05-24T09:41:03;3.13;;;2.93;;
5945;SDS011;2998;48.206;16.394;2023-05-24T09:43:46;2.83;;;2.70;;
5945;SDS011;2998;48.206;16.394;2023-05-24T09:46:17;2.30;;;2.20;;
5945;SDS011;2998;48.206;16.394;2023-05-24T09:48:57;4.03;;;2.70;;
5945;SDS011;2998;48.206;16.394;2023-05-24T09:51:29;2.73;;;2.60;;
5945;SDS011;2998;48.206;16.394;2023-05-24T09:53:59;2.50;;;2.40;;
5945;SDS011;2998;48.206;16.394;2023-05-24T09:57:24;2.57;;;2.47;;
5945;SDS011;2998;48.206;16.394;2023-05-24T10:04:21;2.20;;;2.10;;
5945;SDS011;2998;48.206;16.394;2023-05-24T10:07:00;2.73;;;2.63;;
5945;SDS011;2998;48.206;16.394;2023-05-24T10:13:47;5.00;;;4.60;;
5945;SDS011;2998;48.206;16.394;2023-05-24T10:20:30;2.20;;;2.10;;
5945;SDS011;2998;48.206;16.394;2023-05-24T10:23:00;2.80;;;2.70;;
5945;SDS011;2998;48.206;16.394;2023-05-24T10:29:52;2.40;;;2.27;;
5945;SDS011;2998;48.206;16.394;2023-05-24T10:32:25;2.40;;;2.30;;
5945;SDS011;2998;48.206;16.394;2023-05-24T10:39:24;2.40;;;2.30;;
5945;SDS011;2998;48.206;16.394;2023-05-24T10:46:14;2.60;;;2.50;;
5945;SDS011;2998;48.206;16.394;2023-05-24T10:48:44;2.27;;;2.17;;
5945;SDS011;2998;48.206;16.394;2023-05-24T10:55:53;2.10;;;2.00;;
5945;SDS011;2998;48.206;16.394;2023-05-24T10:58:26;2.00;;;1.80;;
5945;SDS011;2998;48.206;16.394;2023-05-24T11:05:15;2.30;;;2.20;;
5945;SDS011;2998;48.206;16.394;2023-05-24T11:07:45;2.33;;;2.20;;
5945;SDS011;2998;48.206;16.394;2023-05-24T11:10:22;2.40;;;2.30;;
5945;SDS011;2998;48.206;16.394;2023-05-24T11:13:00;2.70;;;2.60;;
5945;SDS011;2998;48.206;16.394;2023-05-24T11:15:29;2.47;;;2.37;;
5945;SDS011;2998;48.206;16.394;2023-05-24T11:18:14;2.40;;;2.30;;
5945;SDS011;2998;48.206;16.394;2023-05-24T11:20:44;2.30;;;2.20;;
5945;SDS011;2998;48.206;16.394;2023-05-24T11:24:16;2.70;;;2.50;;
5945;SDS011;2998;48.206;16.394;2023-05-24T11:30:59;2.70;;;2.43;;
5945;SDS011;2998;48.206;16.394;2023-05-24T11:33:39;3.13;;;2.53;;
5945;SDS011;2998;48.206;16.394;2023-05-24T11:40:20;2.47;;;2.37;;
5945;SDS011;2998;48.206;16.394;2023-05-24T11:47:09;2.70;;;2.60;;
5945;SDS011;2998;48.206;16.394;2023-05-24T11:49:41;4.37;;;2.90;;
5945;SDS011;2998;48.206;16.394;2023-05-24T11:56:40;5.93;;;2.83;;
5945;SDS011;2998;48.206;16.394;2023-05-24T11:59:13;3.00;;;2.90;;
5945;SDS011;2998;48.206;16.394;2023-05-24T12:05:57;3.50;;;3.30;;
5945;SDS011;2998;48.206;16.394;2023-05-24T12:12:54;4.17;;;3.93;;
5945;SDS011;2998;48.206;16.394;2023-05-24T12:15:23;3.70;;;3.50;;
5945;SDS011;2998;48.206;16.394;2023-05-24T12:22:07;4.70;;;4.50;;
5945;SDS011;2998;48.206;16.394;2023-05-24T12:24:36;5.33;;;5.10;;
5945;SDS011;2998;48.206;16.394;2023-05-24T12:31:25;5.80;;;4.33;;
5945;SDS011;2998;48.206;16.394;2023-05-24T12:38:08;5.80;;;5.17;;
5945;SDS011;2998;48.206;16.394;2023-05-24T12:40:39;5.33;;;5.03;;
5945;SDS011;2998;48.206;16.394;2023-05-24T12:47:23;5.33;;;4.83;;
5945;SDS011;2998;48.206;16.394;2023-05-24T12:49:53;5.00;;;4.70;;
5945;SDS011;2998;48.206;16.394;2023-05-24T12:52:22;5.90;;;5.47;;
5945;SDS011;2998;48.206;16.394;2023-05-24T12:55:20;5.30;;;5.00;;
5945;SDS011;2998;48.206;16.394;2023-05-24T13:01:57;7.23;;;6.60;;
5945;SDS011;2998;48.206;16.394;2023-05-24T13:08:50;6.60;;;6.20;;
5945;SDS011;2998;48.206;16.394;2023-05-24T13:11:22;6.20;;;5.70;;
5945;SDS011;2998;48.206;16.394;2023-05-24T13:18:04;5.60;;;5.20;;
5945;SDS011;2998;48.206;16.394;2023-05-24T13:24:53;6.13;;;5.77;;
5945;SDS011;2998;48.206;16.394;2023-05-24T13:27:25;5.50;;;5.20;;
5945;SDS011;2998;48.206;16.394;2023-05-24T13:34:14;6.10;;;5.30;;
5945;SDS011;2998;48.206;16.394;2023-05-24T13:36:45;5.10;;;4.80;;
5945;SDS011;2998;48.206;16.394;2023-05-24T13:43:34;5.53;;;5.13;;
5945;SDS011;2998;48.206;16.394;2023-05-24T13:46:04;5.17;;;4.73;;
5945;SDS011;2998;48.206;16.394;2023-05-24T13:52:54;4.43;;;4.03;;
5945;SDS011;2998;48.206;16.394;2023-05-24T13:59:38;4.60;;;4.40;;
5945;SDS011;2998;48.206;16.394;2023-05-24T14:02:08;4.57;;;4.27;;
5945;SDS011;2998;48.206;16.394;2023-05-24T14:08:58;4.70;;;4.50;;
5945;SDS011;2998;48.206;16.394;2023-05-24T14:11:28;4.70;;;4.50;;
5945;SDS011;2998;48.206;16.394;2023-05-24T14:18:17;4.63;;;4.40;;
5945;SDS011;2998;48.206;16.394;2023-05-24T14:25:12;3.67;;;3.57;;
5945;SDS011;2998;48.206;16.394;2023-05-24T14:27:42;3.80;;;3.50;;
5945;SDS011;2998;48.206;16.394;2023-05-24T14:34:25;3.93;;;3.40;;
5945;SDS011;2998;48.206;16.394;2023-05-24T14:36:54;4.03;;;3.73;;
5945;SDS011;2998;48.206;16.394;2023-05-24T14:43:43;3.57;;;3.23;;
5945;SDS011;2998;48.206;16.394;2023-05-24T14:46:15;3.60;;;3.50;;
5945;SDS011;2998;48.206;16.394;2023-05-24T14:48:45;4.00;;;3.80;;
5945;SDS011;2998;48.206;16.394;2023-05-24T14:51:16;3.50;;;3.30;;
5945;SDS011;2998;48.206;16.394;2023-05-24T14:53:46;3.60;;;3.30;;
5945;SDS011;2998;48.206;16.394;2023-05-24T14:56:16;3.63;;;3.40;;
5945;SDS011;2998;48.206;16.394;2023-05-24T14:58:45;3.47;;;3.37;;
5945;SDS011;2998;48.206;16.394;2023-05-24T15:01:15;3.43;;;3.23;;
5945;SDS011;2998;48.206;16.394;2023-05-24T15:03:44;3.60;;;3.40;;
5945;SDS011;2998;48.206;16.394;2023-05-24T15:10:34;3.37;;;3.27;;
5945;SDS011;2998;48.206;16.394;2023-05-24T15:13:05;3.63;;;3.43;;
5945;SDS011;2998;48.206;16.394;2023-05-24T15:19:53;3.27;;;3.10;;
5945;SDS011;2998;48.206;16.394;2023-05-24T15:22:25;4.20;;;3.93;;
5945;SDS011;2998;48.206;16.394;2023-05-24T15:29:15;3.60;;;3.40;;
5945;SDS011;2998;48.206;16.394;2023-05-24T15:31:44;3.60;;;3.50;;
5945;SDS011;2998;48.206;16.394;2023-05-24T15:34:14;3.40;;;3.10;;
5945;SDS011;2998;48.206;16.394;2023-05-24T15:36:43;4.03;;;3.33;;
5945;SDS011;2998;48.206;16.394;2023-05-24T15:39:13;3.30;;;3.10;;
5945;SDS011;2998;48.206;16.394;2023-05-24T15:45:57;3.20;;;3.00;;
5945;SDS011;2998;48.206;16.394;2023-05-24T15:48:27;3.60;;;3.20;;
5945;SDS011;2998;48.206;16.394;2023-05-24T15:55:21;3.60;;;3.40;;
5945;SDS011;2998;48.206;16.394;2023-05-24T15:57:51;7.33;;;3.63;;
5945;SDS011;2998;48.206;16.394;2023-05-24T16:04:33;4.80;;;3.80;;
5945;SDS011;2998;48.206;16.394;2023-05-24T16:11:21;7.20;;;3.70;;
5945;SDS011;2998;48.206;16.394;2023-05-24T16:13:50;3.43;;;3.23;;
5945;SDS011;2998;48.206;16.394;2023-05-24T16:20:40;3.40;;;3.20;;
5945;SDS011;2998;48.206;16.394;2023-05-24T16:23:12;3.80;;;3.50;;
5945;SDS011;2998;48.206;16.394;2023-05-24T16:25:42;3.80;;;3.40;;
5945;SDS011;2998;48.206;16.394;2023-05-24T16:28:12;3.73;;;3.53;;
5945;SDS011;2998;48.206;16.394;2023-05-24T16:30:41;3.67;;;3.47;;
5945;SDS011;2998;48.206;16.394;2023-05-24T16:33:10;3.40;;;3.20;;
5945;SDS011;2998;48.206;16.394;2023-05-24T16:35:42;3.80;;;3.60;;
5945;SDS011;2998;48.206;16.394;2023-05-24T16:38:11;3.50;;;3.30;;
5945;SDS011;2998;48.206;16.394;2023-05-24T16:40:40;4.10;;;3.80;;
5945;SDS011;2998;48.206;16.394;2023-05-24T16:43:10;3.60;;;3.27;;
5945;SDS011;2998;48.206;16.394;2023-05-24T16:45:39;3.43;;;3.23;;
5945;SDS011;2998;48.206;16.394;2023-05-24T16:48:08;4.60;;;4.30;;
5945;SDS011;2998;48.206;16.394;2023-05-24T16:50:38;3.90;;;3.70;;
5945;SDS011;2998;48.206;16.394;2023-05-24T16:57:35;4.50;;;3.23;;
5945;SDS011;2998;48.206;16.394;2023-05-24T17:00:05;3.40;;;3.20;;
5945;SDS011;2998;48.206;16.394;2023-05-24T17:06:48;4.07;;;3.57;;
5945;SDS011;2998;48.206;16.394;2023-05-24T17:09:17;5.73;;;3.27;;
5945;SDS011;2998;48.206;16.394;2023-05-24T17:16:07;3.87;;;3.40;;
5945;SDS011;2998;48.206;16.394;2023-05-24T17:22:49;4.97;;;3.70;;
5945;SDS011;2998;48.206;16.394;2023-05-24T17:25:19;4.43;;;3.30;;
5945;SDS011;2998;48.206;16.394;2023-05-24T17:32:03;4.30;;;3.90;;
5945;SDS011;2998;48.206;16.394;2023-05-24T17:34:33;4.27;;;3.97;;
5945;SDS011;2998;48.206;16.394;2023-05-24T17:41:21;4.50;;;4.20;;
5945;SDS011;2998;48.206;16.394;2023-05-24T17:48:05;4.87;;;4.60;;
5945;SDS011;2998;48.206;16.394;2023-05-24T17:50:35;5.10;;;4.73;;
5945;SDS011;2998;48.206;16.394;2023-05-24T17:57:16;6.50;;;6.20;;
5945;SDS011;2998;48.206;16.394;2023-05-24T17:59:45;5.67;;;5.37;;
5945;SDS011;2998;48.206;16.394;2023-05-24T18:02:14;5.30;;;5.00;;
5945;SDS011;2998;48.206;16.394;2023-05-24T18:09:09;6.33;;;5.83;;
5945;SDS011;2998;48.206;16.394;2023-05-24T18:11:39;7.70;;;5.53;;
5945;SDS011;2998;48.206;16.394;2023-05-24T18:18:28;6.03;;;5.63;;
5945;SDS011;2998;48.206;16.394;2023-05-24T18:20:57;5.97;;;5.57;;
5945;SDS011;2998;48.206;16.394;2023-05-24T18:27:46;6.10;;;5.80;;
5945;SDS011;2998;48.206;16.394;2023-05-24T18:30:16;6.17;;;5.77;;
5945;SDS011;2998;48.206;16.394;2023-05-24T18:32:45;6.87;;;6.47;;
5945;SDS011;2998;48.206;16.394;2023-05-24T18:35:31;7.37;;;6.23;;
5945;SDS011;2998;48.206;16.394;2023-05-24T18:38:01;6.27;;;5.87;;
5945;SDS011;2998;48.206;16.394;2023-05-24T18:41:09;6.50;;;5.90;;
5945;SDS011;2998;48.206;16.394;2023-05-24T18:48:02;6.30;;;5.80;;
5945;SDS011;2998;48.206;16.394;2023-05-24T18:59:01;6.13;;;5.73;;
5945;SDS011;2998;48.206;16.394;2023-05-24T19:01:31;5.73;;;5.43;;
5945;SDS011;2998;48.206;16.394;2023-05-24T19:08:19;6.63;;;6.13;;
5945;SDS011;2998;48.206;16.394;2023-05-24T19:14:59;6.10;;;5.80;;
5945;SDS011;2998;48.206;16.394;2023-05-24T19:17:29;6.50;;;6.00;;
5945;SDS011;2998;48.206;16.394;2023-05-24T19:24:06;6.17;;;5.73;;
5945;SDS011;2998;48.206;16.394;2023-05-24T19:26:35;5.73;;;5.33;;
5945;SDS011;2998;48.206;16.394;2023-05-24T19:29:04;5.77;;;5.37;;
5945;SDS011;2998;48.206;16.394;2023-05-24T19:32:06;20.67;;;15.60;;
5945;SDS011;2998;48.206;16.394;2023-05-24T19:38:54;5.60;;;5.30;;
5945;SDS011;2998;48.206;16.394;2023-05-24T19:41:24;5.53;;;5.13;;
5945;SDS011;2998;48.206;16.394;2023-05-24T19:43:54;6.47;;;5.97;;
5945;SDS011;2998;48.206;16.394;2023-05-24T19:55:07;14.30;;;10.70;;
5945;SDS011;2998;48.206;16.394;2023-05-24T19:57:42;9.77;;;7.93;;
5945;SDS011;2998;48.206;16.394;2023-05-24T20:04:33;17.13;;;7.10;;
5945;SDS011;2998;48.206;16.394;2023-05-24T20:07:07;7.07;;;6.37;;
5945;SDS011;2998;48.206;16.394;2023-05-24T20:09:36;7.63;;;6.93;;
5945;SDS011;2998;48.206;16.394;2023-05-24T20:12:07;7.57;;;5.87;;
5945;SDS011;2998;48.206;16.394;2023-05-24T20:14:38;5.93;;;5.43;;
5945;SDS011;2998;48.206;16.394;2023-05-24T20:17:07;5.70;;;5.30;;
5945;SDS011;2998;48.206;16.394;2023-05-24T20:19:37;6.23;;;5.20;;
5945;SDS011;2998;48.206;16.394;2023-05-24T20:22:06;5.77;;;5.30;;
5945;SDS011;2998;48.206;16.394;2023-05-24T20:24:36;7.70;;;4.63;;
5945;SDS011;2998;48.206;16.394;2023-05-24T20:31:12;4.73;;;4.10;;
5945;SDS011;2998;48.206;16.394;2023-05-24T20:33:42;5.67;;;5.10;;
5945;SDS011;2998;48.206;16.394;2023-05-24T20:40:31;5.03;;;4.70;;
5945;SDS011;2998;48.206;16.394;2023-05-24T20:43:00;6.23;;;4.80;;
5945;SDS011;2998;48.206;16.394;2023-05-24T20:45:30;4.57;;;4.17;;
5945;SDS011;2998;48.206;16.394;2023-05-24T20:48:01;5.00;;;4.53;;
5945;SDS011;2998;48.206;16.394;2023-05-24T20:50:30;4.07;;;3.77;;
5945;SDS011;2998;48.206;16.394;2023-05-24T20:52:59;5.33;;;4.87;;
5945;SDS011;2998;48.206;16.394;2023-05-24T20:55:30;4.13;;;3.87;;
5945;SDS011;2998;48.206;16.394;2023-05-24T20:58:00;4.47;;;4.07;;
5945;SDS011;2998;48.206;16.394;2023-05-24T21:00:29;18.40;;;8.13;;
5945;SDS011;2998;48.206;16.394;2023-05-24T21:03:03;5.63;;;5.10;;
5945;SDS011;2998;48.206;16.394;2023-05-24T21:05:32;6.80;;;4.77;;
5945;SDS011;2998;48.206;16.394;2023-05-24T21:08:03;14.10;;;8.10;;
5945;SDS011;2998;48.206;16.394;2023-05-24T21:10:33;12.70;;;4.90;;
5945;SDS011;2998;48.206;16.394;2023-05-24T21:13:03;5.33;;;5.00;;
5945;SDS011;2998;48.206;16.394;2023-05-24T21:15:33;5.30;;;4.90;;
5945;SDS011;2998;48.206;16.394;2023-05-24T21:22:15;68.43;;;26.13;;
5945;SDS011;2998;48.206;16.394;2023-05-24T21:24:45;11.73;;;7.10;;
5945;SDS011;2998;48.206;16.394;2023-05-24T21:31:20;6.60;;;5.60;;
5945;SDS011;2998;48.206;16.394;2023-05-24T21:33:49;4.93;;;4.53;;
5945;SDS011;2998;48.206;16.394;2023-05-24T21:36:19;7.90;;;6.23;;
5945;SDS011;2998;48.206;16.394;2023-05-24T21:38:50;4.90;;;4.53;;
5945;SDS011;2998;48.206;16.394;2023-05-24T21:41:19;5.60;;;5.10;;
5945;SDS011;2998;48.206;16.394;2023-05-24T21:43:48;7.50;;;5.07;;
5945;SDS011;2998;48.206;16.394;2023-05-24T21:46:18;7.27;;;5.50;;
5945;SDS011;2998;48.206;16.394;2023-05-24T21:57:48;7.13;;;5.77;;
5945;SDS011;2998;48.206;16.394;2023-05-24T22:00:19;9.53;;;6.30;;
5945;SDS011;2998;48.206;16.394;2023-05-24T22:07:01;7.07;;;5.60;;
5945;SDS011;2998;48.206;16.394;2023-05-24T22:09:31;7.03;;;6.10;;
5945;SDS011;2998;48.206;16.394;2023-05-24T22:12:00;6.97;;;6.13;;
5945;SDS011;2998;48.206;16.394;2023-05-24T22:14:31;11.13;;;6.23;;
5945;SDS011;2998;48.206;16.394;2023-05-24T22:17:01;8.87;;;6.30;;
5945;SDS011;2998;48.206;16.394;2023-05-24T22:19:30;9.03;;;6.40;;
5945;SDS011;2998;48.206;16.394;2023-05-24T22:22:02;6.80;;;6.00;;
5945;SDS011;2998;48.206;16.394;2023-05-24T22:24:32;7.57;;;6.20;;
5945;SDS011;2998;48.206;16.394;2023-05-24T22:27:01;8.70;;;7.40;;
5945;SDS011;2998;48.206;16.394;2023-05-24T22:29:32;8.40;;;7.10;;
5945;SDS011;2998;48.206;16.394;2023-05-24T22:32:01;7.57;;;6.20;;
5945;SDS011;2998;48.206;16.394;2023-05-24T22:34:31;7.47;;;5.90;;
5945;SDS011;2998;48.206;16.394;2023-05-24T22:37:00;8.53;;;6.57;;
5945;SDS011;2998;48.206;16.394;2023-05-24T22:39:30;9.53;;;6.77;;
5945;SDS011;2998;48.206;16.394;2023-05-24T22:41:59;6.70;;;5.97;;
5945;SDS011;2998;48.206;16.394;2023-05-24T22:44:28;10.37;;;6.00;;
5945;SDS011;2998;48.206;16.394;2023-05-24T22:46:59;11.43;;;7.97;;
5945;SDS011;2998;48.206;16.394;2023-05-24T22:49:29;12.00;;;6.83;;
5945;SDS011;2998;48.206;16.394;2023-05-24T22:52:00;8.77;;;7.23;;